sensor_id;sensor_type;location;lat;lon;timestamp;pressure;altitude;pressure_sealevel;temperature;humidity
72024;BME280;59889;50.700;5.440;2023-04-29T00:00:16;99907.71;;;22.27;34.66
72024;BME280;59889;50.700;5.440;2023-04-29T00:02:41;99910.08;;;22.42;34.45
72024;BME280;59889;50.700;5.440;2023-04-29T00:05:06;99919.34;;;22.14;34.49
72024;BME280;59889;50.700;5.440;2023-04-29T00:07:31;99920.92;;;22.30;34.60
72024;BME280;59889;50.700;5.440;2023-04-29T00:09:56;99922.55;;;22.27;34.68
72024;BME280;59889;50.700;5.440;2023-04-29T00:12:22;99923.68;;;22.34;34.56
72024;BME280;59889;50.700;5.440;2023-04-29T00:14:46;99921.16;;;22.30;34.63
72024;BME280;59889;50.700;5.440;2023-04-29T00:17:11;99920.39;;;22.13;34.52
72024;BME280;59889;50.700;5.440;2023-04-29T00:19:36;99921.53;;;22.45;34.40
72024;BME280;59889;50.700;5.440;2023-04-29T00:22:01;99923.22;;;22.40;34.47
72024;BME280;59889;50.700;5.440;2023-04-29T00:24:26;99925.41;;;22.44;34.45
72024;BME280;59889;50.700;5.440;2023-04-29T00:26:51;99925.87;;;22.40;34.50
72024;BME280;59889;50.700;5.440;2023-04-29T00:29:16;99926.29;;;22.30;34.60
72024;BME280;59889;50.700;5.440;2023-04-29T00:31:41;99928.55;;;22.33;34.59
72024;BME280;59889;50.700;5.440;2023-04-29T00:34:06;99929.84;;;22.13;34.57
72024;BME280;59889;50.700;5.440;2023-04-29T00:36:31;99929.01;;;22.12;34.51
72024;BME280;59889;50.700;5.440;2023-04-29T00:38:56;99930.74;;;22.11;34.55
72024;BME280;59889;50.700;5.440;2023-04-29T00:41:22;99929.48;;;22.29;34.62
72024;BME280;59889;50.700;5.440;2023-04-29T00:43:46;99935.10;;;22.36;34.54
72024;BME280;59889;50.700;5.440;2023-04-29T00:46:11;99932.45;;;22.20;34.69
72024;BME280;59889;50.700;5.440;2023-04-29T00:48:36;99937.07;;;22.39;34.49
72024;BME280;59889;50.700;5.440;2023-04-29T00:51:02;99938.23;;;22.38;34.49
72024;BME280;59889;50.700;5.440;2023-04-29T00:53:26;99943.60;;;22.28;34.33
72024;BME280;59889;50.700;5.440;2023-04-29T00:55:51;99946.63;;;22.21;34.40
72024;BME280;59889;50.700;5.440;2023-04-29T00:58:16;99948.32;;;22.39;34.48
72024;BME280;59889;50.700;5.440;2023-04-29T01:00:42;99950.90;;;22.36;34.52
72024;BME280;59889;50.700;5.440;2023-04-29T01:03:07;99954.50;;;22.09;34.56
72024;BME280;59889;50.700;5.440;2023-04-29T01:05:32;99954.84;;;22.44;34.41
72024;BME280;59889;50.700;5.440;2023-04-29T01:08:08;99951.42;;;22.49;34.33
72024;BME280;59889;50.700;5.440;2023-04-29T01:10:26;99954.91;;;22.46;34.38
72024;BME280;59889;50.700;5.440;2023-04-29T01:12:52;99959.33;;;22.20;34.41
72024;BME280;59889;50.700;5.440;2023-04-29T01:15:20;99958.12;;;22.47;34.35
72024;BME280;59889;50.700;5.440;2023-04-29T01:17:40;99959.57;;;22.30;34.59
72024;BME280;59889;50.700;5.440;2023-04-29T01:20:03;99958.14;;;22.53;34.30
72024;BME280;59889;50.700;5.440;2023-04-29T01:22:27;99959.59;;;22.57;34.27
72024;BME280;59889;50.700;5.440;2023-04-29T01:24:52;99958.80;;;22.47;34.34
72024;BME280;59889;50.700;5.440;2023-04-29T01:27:26;99961.67;;;22.19;34.39
72024;BME280;59889;50.700;5.440;2023-04-29T01:29:47;99961.50;;;22.47;34.35
72024;BME280;59889;50.700;5.440;2023-04-29T01:32:12;99966.39;;;22.41;34.42
72024;BME280;59889;50.700;5.440;2023-04-29T01:34:38;99967.87;;;22.72;34.35
72024;BME280;59889;50.700;5.440;2023-04-29T01:37:03;99969.41;;;21.87;34.51
72024;BME280;59889;50.700;5.440;2023-04-29T01:39:28;99968.89;;;22.72;34.36
72024;BME280;59889;50.700;5.440;2023-04-29T01:41:52;99970.46;;;22.41;34.42
72024;BME280;59889;50.700;5.440;2023-04-29T01:44:14;99966.69;;;22.19;34.41
72024;BME280;59889;50.700;5.440;2023-04-29T01:46:37;99967.15;;;22.45;34.37
72024;BME280;59889;50.700;5.440;2023-04-29T01:49:02;99966.29;;;22.54;34.58
72024;BME280;59889;50.700;5.440;2023-04-29T01:51:27;99965.38;;;22.44;34.39
72024;BME280;59889;50.700;5.440;2023-04-29T01:53:52;99966.40;;;22.39;34.45
72024;BME280;59889;50.700;5.440;2023-04-29T01:56:17;99967.41;;;22.45;34.38
72024;BME280;59889;50.700;5.440;2023-04-29T01:58:42;99969.40;;;22.29;34.59
72024;BME280;59889;50.700;5.440;2023-04-29T02:01:07;99969.72;;;22.37;34.49
72024;BME280;59889;50.700;5.440;2023-04-29T02:03:32;99969.77;;;22.36;34.51
72024;BME280;59889;50.700;5.440;2023-04-29T02:05:57;99966.08;;;22.48;34.36
72024;BME280;59889;50.700;5.440;2023-04-29T02:08:22;99969.41;;;22.53;34.33
72024;BME280;59889;50.700;5.440;2023-04-29T02:10:52;99972.36;;;22.51;34.32
72024;BME280;59889;50.700;5.440;2023-04-29T02:13:12;99976.46;;;22.56;34.27
72024;BME280;59889;50.700;5.440;2023-04-29T02:15:37;99976.50;;;22.42;34.45
72024;BME280;59889;50.700;5.440;2023-04-29T02:18:03;99977.65;;;22.40;34.47
72024;BME280;59889;50.700;5.440;2023-04-29T02:20:28;99981.13;;;22.08;34.56
72024;BME280;59889;50.700;5.440;2023-04-29T02:22:53;99980.89;;;22.42;34.42
72024;BME280;59889;50.700;5.440;2023-04-29T02:25:18;99979.68;;;22.33;34.55
72024;BME280;59889;50.700;5.440;2023-04-29T02:27:43;99983.92;;;22.64;34.44
72024;BME280;59889;50.700;5.440;2023-04-29T02:30:08;99985.55;;;22.47;34.35
72024;BME280;59889;50.700;5.440;2023-04-29T02:32:33;99988.53;;;22.47;34.36
72024;BME280;59889;50.700;5.440;2023-04-29T02:34:58;99991.86;;;22.53;34.29
72024;BME280;59889;50.700;5.440;2023-04-29T02:37:23;99993.05;;;22.23;34.35
72024;BME280;59889;50.700;5.440;2023-04-29T02:39:48;99997.15;;;22.45;34.37
72024;BME280;59889;50.700;5.440;2023-04-29T02:42:13;100000.06;;;22.44;34.39
72024;BME280;59889;50.700;5.440;2023-04-29T02:44:38;99997.58;;;22.17;34.44
72024;BME280;59889;50.700;5.440;2023-04-29T02:47:03;100000.56;;;22.42;34.42
72024;BME280;59889;50.700;5.440;2023-04-29T02:49:28;100002.81;;;22.44;34.39
72024;BME280;59889;50.700;5.440;2023-04-29T02:51:53;100007.26;;;22.26;34.30
72024;BME280;59889;50.700;5.440;2023-04-29T02:54:18;100009.77;;;22.39;34.45
72024;BME280;59889;50.700;5.440;2023-04-29T02:56:43;100009.96;;;22.15;34.46
72024;BME280;59889;50.700;5.440;2023-04-29T02:59:08;100012.43;;;22.45;34.37
72024;BME280;59889;50.700;5.440;2023-04-29T03:01:33;100013.92;;;22.28;34.60
72024;BME280;59889;50.700;5.440;2023-04-29T03:03:58;100017.58;;;22.53;34.28
72024;BME280;59889;50.700;5.440;2023-04-29T03:06:23;100019.52;;;22.69;34.36
72024;BME280;59889;50.700;5.440;2023-04-29T03:08:48;100020.71;;;22.41;34.42
72024;BME280;59889;50.700;5.440;2023-04-29T03:11:13;100024.01;;;22.44;34.38
72024;BME280;59889;50.700;5.440;2023-04-29T03:13:38;100028.34;;;22.28;34.28
72024;BME280;59889;50.700;5.440;2023-04-29T03:16:04;100030.17;;;22.33;34.51
72024;BME280;59889;50.700;5.440;2023-04-29T03:18:28;100031.77;;;22.23;34.66
72024;BME280;59889;50.700;5.440;2023-04-29T03:20:53;100033.90;;;22.28;34.56
72024;BME280;59889;50.700;5.440;2023-04-29T03:23:18;100033.57;;;22.17;34.41
72024;BME280;59889;50.700;5.440;2023-04-29T03:25:44;100036.93;;;22.48;34.32
72024;BME280;59889;50.700;5.440;2023-04-29T03:28:09;100038.09;;;22.31;34.55
72024;BME280;59889;50.700;5.440;2023-04-29T03:30:34;100040.34;;;22.34;34.50
72024;BME280;59889;50.700;5.440;2023-04-29T03:32:59;100040.46;;;22.35;34.45
72024;BME280;59889;50.700;5.440;2023-04-29T03:35:24;100042.58;;;22.48;34.33
72024;BME280;59889;50.700;5.440;2023-04-29T03:37:49;100043.45;;;22.32;34.52
72024;BME280;59889;50.700;5.440;2023-04-29T03:40:14;100043.58;;;22.40;34.41
72024;BME280;59889;50.700;5.440;2023-04-29T03:42:39;100044.31;;;22.28;34.55
72024;BME280;59889;50.700;5.440;2023-04-29T03:45:05;100045.32;;;22.31;34.50
72024;BME280;59889;50.700;5.440;2023-04-29T03:47:29;100044.95;;;22.40;34.38
72024;BME280;59889;50.700;5.440;2023-04-29T03:49:54;100045.24;;;22.36;34.40
72024;BME280;59889;50.700;5.440;2023-04-29T03:52:19;100047.47;;;22.38;34.35
72024;BME280;59889;50.700;5.440;2023-04-29T03:54:44;100051.03;;;22.55;34.14
72024;BME280;59889;50.700;5.440;2023-04-29T03:57:09;100055.19;;;22.35;34.37
72024;BME280;59889;50.700;5.440;2023-04-29T03:59:34;100052.35;;;22.32;34.42
72024;BME280;59889;50.700;5.440;2023-04-29T04:01:59;100057.12;;;22.53;34.13
72024;BME280;59889;50.700;5.440;2023-04-29T04:04:24;100057.04;;;22.46;34.20
72024;BME280;59889;50.700;5.440;2023-04-29T04:06:49;100058.32;;;22.06;34.42
72024;BME280;59889;50.700;5.440;2023-04-29T04:09:14;100062.65;;;22.37;34.30
72024;BME280;59889;50.700;5.440;2023-04-29T04:11:39;100066.45;;;22.29;34.10
72024;BME280;59889;50.700;5.440;2023-04-29T04:14:04;100067.67;;;22.32;34.33
72024;BME280;59889;50.700;5.440;2023-04-29T04:16:29;100068.26;;;22.47;34.14
72024;BME280;59889;50.700;5.440;2023-04-29T04:18:55;100070.24;;;22.41;34.21
72024;BME280;59889;50.700;5.440;2023-04-29T04:21:19;100072.19;;;22.19;34.18
72024;BME280;59889;50.700;5.440;2023-04-29T04:23:45;100074.63;;;22.42;34.17
72024;BME280;59889;50.700;5.440;2023-04-29T04:26:10;100076.93;;;22.12;34.27
72024;BME280;59889;50.700;5.440;2023-04-29T04:28:35;100077.78;;;22.40;34.20
72024;BME280;59889;50.700;5.440;2023-04-29T04:31:00;100080.19;;;22.37;34.22
72024;BME280;59889;50.700;5.440;2023-04-29T04:33:25;100080.87;;;22.33;34.27
72024;BME280;59889;50.700;5.440;2023-04-29T04:35:50;100089.15;;;22.32;34.29
72024;BME280;59889;50.700;5.440;2023-04-29T04:38:15;100094.31;;;22.36;34.24
72024;BME280;59889;50.700;5.440;2023-04-29T04:40:40;100098.31;;;22.30;34.30
72024;BME280;59889;50.700;5.440;2023-04-29T04:43:05;100104.93;;;22.24;34.38
72024;BME280;59889;50.700;5.440;2023-04-29T04:45:30;100107.70;;;22.29;34.32
72024;BME280;59889;50.700;5.440;2023-04-29T04:47:55;100112.12;;;22.35;34.23
72024;BME280;59889;50.700;5.440;2023-04-29T04:50:20;100115.78;;;22.59;34.23
72024;BME280;59889;50.700;5.440;2023-04-29T04:52:45;100120.85;;;22.41;34.13
72024;BME280;59889;50.700;5.440;2023-04-29T04:55:10;100128.45;;;22.21;34.41
72024;BME280;59889;50.700;5.440;2023-04-29T04:57:35;100130.45;;;22.29;34.29
72024;BME280;59889;50.700;5.440;2023-04-29T05:00:00;100131.77;;;22.31;34.25
72024;BME280;59889;50.700;5.440;2023-04-29T05:02:25;100135.00;;;22.24;34.33
72024;BME280;59889;50.700;5.440;2023-04-29T05:04:50;100139.24;;;22.08;34.58
72024;BME280;59889;50.700;5.440;2023-04-29T05:07:16;100141.38;;;22.13;34.40
72024;BME280;59889;50.700;5.440;2023-04-29T05:09:41;100139.23;;;22.01;34.34
72024;BME280;59889;50.700;5.440;2023-04-29T05:12:06;100140.98;;;21.86;34.34
72024;BME280;59889;50.700;5.440;2023-04-29T05:14:32;100145.18;;;21.88;34.07
72024;BME280;59889;50.700;5.440;2023-04-29T05:16:58;100145.98;;;22.03;33.73
72024;BME280;59889;50.700;5.440;2023-04-29T05:19:22;100150.09;;;22.15;33.76
72024;BME280;59889;50.700;5.440;2023-04-29T05:21:48;100148.40;;;22.26;33.62
72024;BME280;59889;50.700;5.440;2023-04-29T05:24:13;100151.24;;;22.47;33.60
72024;BME280;59889;50.700;5.440;2023-04-29T05:26:38;100155.42;;;21.90;33.63
72024;BME280;59889;50.700;5.440;2023-04-29T05:29:03;100155.36;;;22.24;33.47
72024;BME280;59889;50.700;5.440;2023-04-29T05:31:29;100158.29;;;22.09;33.56
72024;BME280;59889;50.700;5.440;2023-04-29T05:33:54;100162.03;;;21.70;33.69
72024;BME280;59889;50.700;5.440;2023-04-29T05:36:20;100165.71;;;21.89;33.80
72024;BME280;59889;50.700;5.440;2023-04-29T05:38:46;100168.44;;;21.86;33.93
72024;BME280;59889;50.700;5.440;2023-04-29T05:41:11;100172.19;;;22.06;33.58
72024;BME280;59889;50.700;5.440;2023-04-29T05:43:36;100177.45;;;21.63;33.77
72024;BME280;59889;50.700;5.440;2023-04-29T05:46:01;100180.91;;;21.84;33.74
72024;BME280;59889;50.700;5.440;2023-04-29T05:48:27;100187.76;;;21.82;33.73
72024;BME280;59889;50.700;5.440;2023-04-29T05:50:52;100186.93;;;22.02;33.52
72024;BME280;59889;50.700;5.440;2023-04-29T05:53:17;100187.88;;;21.67;33.60
72024;BME280;59889;50.700;5.440;2023-04-29T05:55:43;100190.27;;;21.62;33.63
72024;BME280;59889;50.700;5.440;2023-04-29T05:58:08;100191.41;;;21.53;33.75
72024;BME280;59889;50.700;5.440;2023-04-29T06:00:33;100195.05;;;22.00;33.49
72024;BME280;59889;50.700;5.440;2023-04-29T06:02:59;100197.03;;;21.58;33.69
72024;BME280;59889;50.700;5.440;2023-04-29T06:05:24;100198.23;;;21.80;33.69
72024;BME280;59889;50.700;5.440;2023-04-29T06:07:50;100198.22;;;21.74;33.81
72024;BME280;59889;50.700;5.440;2023-04-29T06:10:15;100201.86;;;21.53;33.85
72024;BME280;59889;50.700;5.440;2023-04-29T06:12:40;100201.52;;;21.50;34.18
72024;BME280;59889;50.700;5.440;2023-04-29T06:15:06;100203.07;;;21.82;34.31
72024;BME280;59889;50.700;5.440;2023-04-29T06:17:31;100206.73;;;22.06;34.39
72024;BME280;59889;50.700;5.440;2023-04-29T06:19:56;100207.36;;;21.86;34.41
72024;BME280;59889;50.700;5.440;2023-04-29T06:22:21;100209.66;;;21.96;34.38
72024;BME280;59889;50.700;5.440;2023-04-29T06:24:47;100210.24;;;21.83;34.59
72024;BME280;59889;50.700;5.440;2023-04-29T06:27:13;100210.39;;;21.78;34.70
72024;BME280;59889;50.700;5.440;2023-04-29T06:29:38;100213.42;;;21.90;34.59
72024;BME280;59889;50.700;5.440;2023-04-29T06:32:03;100217.07;;;21.74;34.80
72024;BME280;59889;50.700;5.440;2023-04-29T06:34:29;100216.23;;;21.56;34.78
72024;BME280;59889;50.700;5.440;2023-04-29T06:36:54;100220.21;;;21.53;34.87
72024;BME280;59889;50.700;5.440;2023-04-29T06:39:20;100225.81;;;21.87;34.81
72024;BME280;59889;50.700;5.440;2023-04-29T06:41:45;100231.64;;;21.89;34.79
72024;BME280;59889;50.700;5.440;2023-04-29T06:44:11;100235.07;;;21.79;34.91
72024;BME280;59889;50.700;5.440;2023-04-29T06:46:37;100239.54;;;21.78;34.96
72024;BME280;59889;50.700;5.440;2023-04-29T06:49:02;100242.26;;;21.77;34.99
72024;BME280;59889;50.700;5.440;2023-04-29T06:51:27;100243.67;;;22.12;34.94
72024;BME280;59889;50.700;5.440;2023-04-29T06:53:53;100245.59;;;21.92;34.87
72024;BME280;59889;50.700;5.440;2023-04-29T06:56:18;100245.44;;;21.75;35.08
72024;BME280;59889;50.700;5.440;2023-04-29T06:58:44;100247.15;;;21.83;35.02
72024;BME280;59889;50.700;5.440;2023-04-29T07:01:09;100247.56;;;21.83;35.08
72024;BME280;59889;50.700;5.440;2023-04-29T07:03:35;100250.17;;;21.85;35.08
72024;BME280;59889;50.700;5.440;2023-04-29T07:06:00;100251.10;;;21.91;35.01
72024;BME280;59889;50.700;5.440;2023-04-29T07:08:25;100255.04;;;21.76;35.26
72024;BME280;59889;50.700;5.440;2023-04-29T07:10:54;100257.79;;;21.70;35.36
72024;BME280;59889;50.700;5.440;2023-04-29T07:13:16;100262.19;;;21.82;35.26
72024;BME280;59889;50.700;5.440;2023-04-29T07:15:42;100266.47;;;21.83;35.25
72024;BME280;59889;50.700;5.440;2023-04-29T07:18:07;100270.57;;;22.22;35.11
72024;BME280;59889;50.700;5.440;2023-04-29T07:20:35;100271.90;;;21.75;35.36
72024;BME280;59889;50.700;5.440;2023-04-29T07:22:58;100275.55;;;21.65;35.15
72024;BME280;59889;50.700;5.440;2023-04-29T07:25:25;100277.28;;;21.80;35.26
72024;BME280;59889;50.700;5.440;2023-04-29T07:27:48;100274.85;;;21.54;35.33
72024;BME280;59889;50.700;5.440;2023-04-29T07:30:14;100277.81;;;21.51;35.33
72024;BME280;59889;50.700;5.440;2023-04-29T07:32:39;100280.11;;;22.20;35.03
72024;BME280;59889;50.700;5.440;2023-04-29T07:35:05;100281.13;;;21.92;35.04
72024;BME280;59889;50.700;5.440;2023-04-29T07:37:29;100283.51;;;22.15;34.73
72024;BME280;59889;50.700;5.440;2023-04-29T07:39:55;100286.65;;;21.88;35.04
72024;BME280;59889;50.700;5.440;2023-04-29T07:42:20;100290.17;;;21.91;34.97
72024;BME280;59889;50.700;5.440;2023-04-29T07:44:46;100294.37;;;21.94;34.95
72024;BME280;59889;50.700;5.440;2023-04-29T07:47:11;100295.97;;;22.19;34.63
72024;BME280;59889;50.700;5.440;2023-04-29T07:49:37;100297.38;;;21.72;34.92
72024;BME280;59889;50.700;5.440;2023-04-29T07:52:04;100298.76;;;22.00;34.82
72024;BME280;59889;50.700;5.440;2023-04-29T07:54:28;100300.42;;;21.77;34.81
72024;BME280;59889;50.700;5.440;2023-04-29T07:56:53;100300.17;;;21.84;34.74
72024;BME280;59889;50.700;5.440;2023-04-29T07:59:18;100302.11;;;21.74;34.83
72024;BME280;59889;50.700;5.440;2023-04-29T08:01:43;100303.51;;;21.76;34.79
72024;BME280;59889;50.700;5.440;2023-04-29T08:04:09;100306.38;;;21.60;34.99
72024;BME280;59889;50.700;5.440;2023-04-29T08:06:34;100308.04;;;22.04;34.76
72024;BME280;59889;50.700;5.440;2023-04-29T08:08:59;100313.90;;;21.93;34.87
72024;BME280;59889;50.700;5.440;2023-04-29T08:11:24;100319.09;;;21.93;34.86
72024;BME280;59889;50.700;5.440;2023-04-29T08:13:49;100318.57;;;21.92;34.57
72024;BME280;59889;50.700;5.440;2023-04-29T08:16:15;100320.11;;;21.82;34.68
72024;BME280;59889;50.700;5.440;2023-04-29T08:18:40;100318.64;;;21.99;34.45
72024;BME280;59889;50.700;5.440;2023-04-29T08:21:05;100320.02;;;21.76;34.74
72024;BME280;59889;50.700;5.440;2023-04-29T08:23:30;100327.01;;;21.74;34.81
72024;BME280;59889;50.700;5.440;2023-04-29T08:25:55;100327.74;;;21.91;34.57
72024;BME280;59889;50.700;5.440;2023-04-29T08:28:20;100328.63;;;21.91;34.61
72024;BME280;59889;50.700;5.440;2023-04-29T08:30:46;100330.80;;;22.20;34.53
72024;BME280;59889;50.700;5.440;2023-04-29T08:33:11;100334.97;;;22.05;34.70
72024;BME280;59889;50.700;5.440;2023-04-29T08:35:36;100335.52;;;22.19;34.50
72024;BME280;59889;50.700;5.440;2023-04-29T08:38:01;100343.44;;;21.83;34.68
72024;BME280;59889;50.700;5.440;2023-04-29T08:40:26;100342.68;;;22.07;34.67
72024;BME280;59889;50.700;5.440;2023-04-29T08:42:52;100346.39;;;21.73;34.79
72024;BME280;59889;50.700;5.440;2023-04-29T08:45:19;100346.43;;;21.79;34.73
72024;BME280;59889;50.700;5.440;2023-04-29T08:47:42;100344.87;;;22.32;34.36
72024;BME280;59889;50.700;5.440;2023-04-29T08:50:08;100347.08;;;21.84;34.62
72024;BME280;59889;50.700;5.440;2023-04-29T08:52:33;100349.81;;;21.85;34.64
72024;BME280;59889;50.700;5.440;2023-04-29T08:54:58;100354.09;;;21.86;34.61
72024;BME280;59889;50.700;5.440;2023-04-29T08:57:24;100355.30;;;21.76;34.75
72024;BME280;59889;50.700;5.440;2023-04-29T08:59:47;100355.21;;;22.00;34.74
72024;BME280;59889;50.700;5.440;2023-04-29T09:02:15;100355.88;;;21.89;34.57
72024;BME280;59889;50.700;5.440;2023-04-29T09:04:43;100358.22;;;21.59;34.64
72024;BME280;59889;50.700;5.440;2023-04-29T09:07:04;100360.91;;;21.98;34.76
72024;BME280;59889;50.700;5.440;2023-04-29T09:09:28;100362.02;;;21.74;34.75
72024;BME280;59889;50.700;5.440;2023-04-29T09:11:53;100364.32;;;22.20;34.49
72024;BME280;59889;50.700;5.440;2023-04-29T09:14:19;100366.91;;;21.82;34.63
72024;BME280;59889;50.700;5.440;2023-04-29T09:16:45;100373.01;;;22.03;34.69
72024;BME280;59889;50.700;5.440;2023-04-29T09:19:09;100377.81;;;21.98;34.75
72024;BME280;59889;50.700;5.440;2023-04-29T09:21:34;100383.36;;;21.97;34.77
72024;BME280;59889;50.700;5.440;2023-04-29T09:24:01;100387.29;;;21.86;34.64
72024;BME280;59889;50.700;5.440;2023-04-29T09:26:25;100387.90;;;21.69;34.83
72024;BME280;59889;50.700;5.440;2023-04-29T09:31:14;100393.40;;;21.87;35.60
72024;BME280;59889;50.700;5.440;2023-04-29T09:33:50;100390.93;;;21.71;35.82
72024;BME280;59889;50.700;5.440;2023-04-29T09:36:05;100391.41;;;21.72;35.95
72024;BME280;59889;50.700;5.440;2023-04-29T09:38:30;100394.91;;;21.72;36.02
72024;BME280;59889;50.700;5.440;2023-04-29T09:40:54;100399.04;;;21.81;36.02
72024;BME280;59889;50.700;5.440;2023-04-29T09:43:20;100401.03;;;21.97;36.08
72024;BME280;59889;50.700;5.440;2023-04-29T09:45:47;100405.33;;;21.91;36.15
72024;BME280;59889;50.700;5.440;2023-04-29T09:48:11;100406.45;;;21.73;36.15
72024;BME280;59889;50.700;5.440;2023-04-29T09:50:36;100407.96;;;22.25;36.15
72024;BME280;59889;50.700;5.440;2023-04-29T09:53:00;100413.68;;;22.20;36.20
72024;BME280;59889;50.700;5.440;2023-04-29T09:55:25;100414.79;;;21.71;36.20
72024;BME280;59889;50.700;5.440;2023-04-29T09:57:50;100415.41;;;21.82;36.42
72024;BME280;59889;50.700;5.440;2023-04-29T10:00:15;100415.67;;;21.75;36.28
72024;BME280;59889;50.700;5.440;2023-04-29T10:02:41;100416.54;;;21.96;36.24
72024;BME280;59889;50.700;5.440;2023-04-29T10:05:06;100421.76;;;21.87;36.36
72024;BME280;59889;50.700;5.440;2023-04-29T10:07:31;100422.10;;;21.74;36.21
72024;BME280;59889;50.700;5.440;2023-04-29T10:09:56;100425.25;;;21.94;36.26
72024;BME280;59889;50.700;5.440;2023-04-29T10:12:21;100424.35;;;21.70;36.25
72024;BME280;59889;50.700;5.440;2023-04-29T10:14:53;100423.25;;;21.60;36.33
72024;BME280;59889;50.700;5.440;2023-04-29T10:17:15;100419.59;;;22.29;36.09
72024;BME280;59889;50.700;5.440;2023-04-29T10:19:39;100415.87;;;22.07;36.04
72024;BME280;59889;50.700;5.440;2023-04-29T10:22:06;100420.62;;;21.97;36.01
72024;BME280;59889;50.700;5.440;2023-04-29T10:24:26;100421.90;;;21.79;35.91
72024;BME280;59889;50.700;5.440;2023-04-29T10:26:52;100420.41;;;21.78;36.14
72024;BME280;59889;50.700;5.440;2023-04-29T10:29:16;100419.79;;;21.80;36.08
72024;BME280;59889;50.700;5.440;2023-04-29T10:31:42;100423.45;;;21.73;36.07
72024;BME280;59889;50.700;5.440;2023-04-29T10:34:07;100423.37;;;21.83;35.91
72024;BME280;59889;50.700;5.440;2023-04-29T10:36:32;100423.83;;;21.59;35.93
72024;BME280;59889;50.700;5.440;2023-04-29T10:38:59;100424.96;;;21.82;35.97
72024;BME280;59889;50.700;5.440;2023-04-29T10:41:26;100427.98;;;21.63;35.94
72024;BME280;59889;50.700;5.440;2023-04-29T10:43:49;100425.93;;;21.92;35.89
72024;BME280;59889;50.700;5.440;2023-04-29T10:46:18;100427.93;;;21.65;35.91
72024;BME280;59889;50.700;5.440;2023-04-29T10:48:40;100433.57;;;21.60;35.99
72024;BME280;59889;50.700;5.440;2023-04-29T10:51:05;100435.58;;;21.65;35.92
72024;BME280;59889;50.700;5.440;2023-04-29T10:53:31;100432.96;;;21.59;35.96
72024;BME280;59889;50.700;5.440;2023-04-29T10:56:02;100430.56;;;21.60;35.99
72024;BME280;59889;50.700;5.440;2023-04-29T10:58:34;100427.35;;;21.88;35.89
72024;BME280;59889;50.700;5.440;2023-04-29T11:00:47;100428.01;;;21.73;35.77
72024;BME280;59889;50.700;5.440;2023-04-29T11:05:38;100431.09;;;21.84;35.93
72024;BME280;59889;50.700;5.440;2023-04-29T11:08:09;100430.71;;;21.64;35.93
72024;BME280;59889;50.700;5.440;2023-04-29T11:10:35;100430.17;;;21.72;35.89
72024;BME280;59889;50.700;5.440;2023-04-29T11:15:19;100428.77;;;22.03;35.77
72024;BME280;59889;50.700;5.440;2023-04-29T11:17:45;100427.16;;;21.61;35.97
72024;BME280;59889;50.700;5.440;2023-04-29T11:20:12;100432.58;;;21.80;35.74
72024;BME280;59889;50.700;5.440;2023-04-29T11:22:36;100436.88;;;21.75;35.76
72024;BME280;59889;50.700;5.440;2023-04-29T11:25:04;100434.51;;;21.76;35.72
72024;BME280;59889;50.700;5.440;2023-04-29T11:27:29;100436.17;;;21.75;35.78
72024;BME280;59889;50.700;5.440;2023-04-29T11:29:53;100441.16;;;21.93;35.81
72024;BME280;59889;50.700;5.440;2023-04-29T11:32:19;100441.28;;;21.69;35.79
72024;BME280;59889;50.700;5.440;2023-04-29T11:34:42;100445.12;;;21.74;35.69
72024;BME280;59889;50.700;5.440;2023-04-29T11:37:08;100444.79;;;21.69;35.75
72024;BME280;59889;50.700;5.440;2023-04-29T11:39:33;100445.93;;;21.97;35.69
72024;BME280;59889;50.700;5.440;2023-04-29T11:42:02;100445.95;;;21.98;35.64
72024;BME280;59889;50.700;5.440;2023-04-29T11:44:24;100445.58;;;22.09;35.49
72024;BME280;59889;50.700;5.440;2023-04-29T11:46:49;100447.88;;;22.05;35.49
72024;BME280;59889;50.700;5.440;2023-04-29T11:49:14;100449.03;;;21.70;35.67
72024;BME280;59889;50.700;5.440;2023-04-29T11:51:39;100446.00;;;21.79;35.53
72024;BME280;59889;50.700;5.440;2023-04-29T11:54:04;100445.26;;;22.21;35.61
72024;BME280;59889;50.700;5.440;2023-04-29T11:56:30;100443.55;;;21.76;35.53
72024;BME280;59889;50.700;5.440;2023-04-29T11:58:57;100445.33;;;22.06;35.46
72024;BME280;59889;50.700;5.440;2023-04-29T12:01:21;100441.26;;;22.39;35.03
72024;BME280;59889;50.700;5.440;2023-04-29T12:03:48;100442.35;;;21.87;35.32
72024;BME280;59889;50.700;5.440;2023-04-29T12:06:12;100442.49;;;22.19;35.23
72024;BME280;59889;50.700;5.440;2023-04-29T12:08:37;100439.90;;;21.88;35.33
72024;BME280;59889;50.700;5.440;2023-04-29T12:11:02;100441.97;;;21.90;35.32
72024;BME280;59889;50.700;5.440;2023-04-29T12:13:28;100441.45;;;22.16;35.29
72024;BME280;59889;50.700;5.440;2023-04-29T12:15:53;100439.32;;;22.18;35.27
72024;BME280;59889;50.700;5.440;2023-04-29T12:18:19;100439.92;;;22.16;35.33
72024;BME280;59889;50.700;5.440;2023-04-29T12:20:44;100438.06;;;22.07;35.14
72024;BME280;59889;50.700;5.440;2023-04-29T12:23:11;100439.74;;;21.96;35.32
72024;BME280;59889;50.700;5.440;2023-04-29T12:25:34;100440.45;;;22.09;35.14
72024;BME280;59889;50.700;5.440;2023-04-29T12:28:01;100445.07;;;22.20;35.35
72024;BME280;59889;50.700;5.440;2023-04-29T12:30:26;100446.35;;;22.11;35.32
72024;BME280;59889;50.700;5.440;2023-04-29T12:32:51;100445.62;;;21.98;35.21
72024;BME280;59889;50.700;5.440;2023-04-29T12:35:17;100444.08;;;22.17;34.98
72024;BME280;59889;50.700;5.440;2023-04-29T12:37:47;100449.07;;;22.25;35.25
72024;BME280;59889;50.700;5.440;2023-04-29T12:40:12;100448.82;;;22.21;35.00
72024;BME280;59889;50.700;5.440;2023-04-29T12:42:34;100451.34;;;21.90;35.45
72024;BME280;59889;50.700;5.440;2023-04-29T12:44:59;100451.84;;;22.26;35.30
72024;BME280;59889;50.700;5.440;2023-04-29T12:47:30;100455.02;;;21.85;35.60